Time;durP1;ratioP1;P1;durP2;ratioP2;P2;SDS_P1;SDS_P2;PMS_P1;PMS_P2;Temp;Humidity;BMP_temperature;BMP_pressure;BME280_temperature;BME280_humidity;BME280_pressure;Samples;Min_cycle;Max_cycle;Signal;HPM_P1;HPM_P2
2023/10/18 00:00:18;;;;;;;13.73;7.05;;;;;;;;;;6227717;28;20050;-69
2023/10/18 00:03:19;;;;;;;13.77;7.13;;;;;;;;;;6226680;28;20096;-70
2023/10/18 00:06:23;;;;;;;14.15;7.20;;;;;;;;;;6228705;28;20053;-71
2023/10/18 00:09:45;;;;;;;12.52;7.15;;;;;;;;;;6225469;28;20066;-69
2023/10/18 00:12:47;;;;;;;11.25;6.50;;;;;;;;;;6220460;28;20394;-71
2023/10/18 00:15:52;;;;;;;14.65;7.43;;;;;;;;;;6221674;28;20057;-69
2023/10/18 00:18:54;;;;;;;14.02;7.28;;;;;;;;;;6227463;28;20555;-72
2023/10/18 00:21:57;;;;;;;13.45;7.82;;;;;;;;;;6227754;28;20060;-70
2023/10/18 00:25:00;;;;;;;17.08;7.70;;;;;;;;;;6231141;28;20045;-71
2023/10/18 00:28:01;;;;;;;17.83;7.32;;;;;;;;;;6228163;28;20046;-71
2023/10/18 00:31:14;;;;;;;13.75;7.05;;;;;;;;;;6228988;28;20064;-70
2023/10/18 00:34:16;;;;;;;10.70;6.97;;;;;;;;;;6250610;28;20074;-73
2023/10/18 00:37:22;;;;;;;13.85;6.90;;;;;;;;;;6251649;28;20061;-71
2023/10/18 00:40:34;;;;;;;13.27;7.18;;;;;;;;;;6256878;28;20095;-71
2023/10/18 00:43:36;;;;;;;15.18;7.30;;;;;;;;;;6252440;28;20286;-71
2023/10/18 00:46:39;;;;;;;14.23;6.93;;;;;;;;;;6256155;28;20278;-71
2023/10/18 00:49:41;;;;;;;12.88;6.82;;;;;;;;;;6251599;28;20060;-72
2023/10/18 00:52:44;;;;;;;11.25;6.65;;;;;;;;;;6246156;28;20076;-72
2023/10/18 00:55:48;;;;;;;12.13;6.97;;;;;;;;;;6252841;28;20253;-71
2023/10/18 00:58:52;;;;;;;;;;;;;;;;;;6253632;28;20127;-71
2023/10/18 01:01:58;;;;;;;14.93;7.70;;;;;;;;;;6250460;28;19924;-71
2023/10/18 01:05:00;;;;;;;8.77;6.32;;;;;;;;;;6256600;28;20045;-72
2023/10/18 01:08:06;;;;;;;14.25;7.90;;;;;;;;;;6250675;28;20041;-69
2023/10/18 01:11:10;;;;;;;12.20;7.50;;;;;;;;;;6250289;28;20107;-71
2023/10/18 01:14:16;;;;;;;14.55;7.05;;;;;;;;;;6248916;28;20081;-70
2023/10/18 01:17:20;;;;;;;10.63;6.78;;;;;;;;;;6253290;28;20125;-70
2023/10/18 01:20:28;;;;;;;15.70;7.45;;;;;;;;;;6252338;28;20313;-70
2023/10/18 01:23:33;;;;;;;15.25;7.05;;;;;;;;;;6256894;28;20061;-70
2023/10/18 01:26:37;;;;;;;12.45;6.63;;;;;;;;;;6254310;28;20061;-69
2023/10/18 01:29:39;;;;;;;11.68;7.00;;;;;;;;;;6248034;28;20135;-69
2023/10/18 01:32:41;;;;;;;14.85;7.80;;;;;;;;;;6250431;28;20069;-71
2023/10/18 01:35:50;;;;;;;10.40;6.65;;;;;;;;;;6248843;28;20321;-71
2023/10/18 01:38:54;;;;;;;15.93;7.47;;;;;;;;;;6250992;28;20245;-69
2023/10/18 01:41:59;;;;;;;11.40;6.50;;;;;;;;;;6255241;28;20356;-71
2023/10/18 01:45:01;;;;;;;14.75;7.32;;;;;;;;;;6250127;28;20048;-71
2023/10/18 01:48:04;;;;;;;11.15;6.70;;;;;;;;;;6250975;28;20057;-71
2023/10/18 01:51:06;;;;;;;10.88;6.25;;;;;;;;;;6244502;28;20051;-69
2023/10/18 01:54:12;;;;;;;12.82;6.95;;;;;;;;;;6251456;28;20104;-71
2023/10/18 01:57:15;;;;;;;13.07;6.82;;;;;;;;;;6254928;28;20103;-71
2023/10/18 02:00:25;;;;;;;11.13;6.40;;;;;;;;;;6254659;28;20052;-70
2023/10/18 02:03:28;;;;;;;13.05;7.18;;;;;;;;;;6254179;28;20048;-74
2023/10/18 02:06:30;;;;;;;12.68;7.28;;;;;;;;;;6259865;28;20044;-71
2023/10/18 02:09:35;;;;;;;12.30;6.85;;;;;;;;;;6251310;28;20045;-70
2023/10/18 02:12:39;;;;;;;15.20;6.68;;;;;;;;;;6255451;28;20068;-71
2023/10/18 02:15:41;;;;;;;11.98;6.75;;;;;;;;;;6252133;28;20608;-70
2023/10/18 02:18:46;;;;;;;12.60;6.72;;;;;;;;;;6250655;28;20045;-71
2023/10/18 02:21:48;;;;;;;10.82;7.35;;;;;;;;;;6251040;28;20049;-70
2023/10/18 02:24:53;;;;;;;12.30;6.25;;;;;;;;;;6252317;28;20053;-69
2023/10/18 02:27:59;;;;;;;11.93;6.85;;;;;;;;;;6250868;28;20112;-70
2023/10/18 02:31:10;;;;;;;15.15;7.05;;;;;;;;;;6230218;28;20046;-71
2023/10/18 02:34:14;;;;;;;9.98;5.97;;;;;;;;;;6246674;28;20053;-70
2023/10/18 02:37:16;;;;;;;12.80;6.32;;;;;;;;;;6255618;28;20074;-70
2023/10/18 02:40:29;;;;;;;10.60;5.43;;;;;;;;;;6251577;28;20084;-73
2023/10/18 02:43:33;;;;;;;11.05;6.00;;;;;;;;;;6250593;28;20055;-70
2023/10/18 02:46:35;;;;;;;16.02;6.78;;;;;;;;;;6240199;28;20065;-71
2023/10/18 02:49:37;;;;;;;10.55;6.25;;;;;;;;;;6223107;28;20338;-75
2023/10/18 02:52:38;;;;;;;12.85;6.55;;;;;;;;;;6224684;28;20156;-70
2023/10/18 02:55:41;;;;;;;12.50;6.35;;;;;;;;;;6222944;28;20054;-72
2023/10/18 02:58:46;;;;;;;8.15;5.50;;;;;;;;;;6226712;28;20050;-70
2023/10/18 03:01:50;;;;;;;10.32;5.57;;;;;;;;;;6229595;28;20084;-68
2023/10/18 03:04:52;;;;;;;9.75;6.40;;;;;;;;;;6223039;28;20057;-70
2023/10/18 03:07:54;;;;;;;10.65;5.88;;;;;;;;;;6224646;28;20053;-70
2023/10/18 03:10:56;;;;;;;10.70;5.53;;;;;;;;;;6224896;28;20121;-69
2023/10/18 03:14:01;;;;;;;13.30;6.40;;;;;;;;;;6233243;28;20050;-72
2023/10/18 03:17:14;;;;;;;9.30;5.43;;;;;;;;;;6225914;28;20094;-69
2023/10/18 03:20:21;;;;;;;11.20;5.75;;;;;;;;;;6236081;28;20054;-71
2023/10/18 03:23:26;;;;;;;10.55;5.45;;;;;;;;;;6225118;28;20069;-73
2023/10/18 03:26:35;;;;;;;8.35;5.60;;;;;;;;;;6219559;28;20054;-74
2023/10/18 03:29:39;;;;;;;10.18;5.65;;;;;;;;;;6229857;28;20082;-70
2023/10/18 03:32:41;;;;;;;11.40;6.00;;;;;;;;;;6223830;28;20128;-70
2023/10/18 03:35:43;;;;;;;10.65;5.53;;;;;;;;;;6247968;28;20060;-71
2023/10/18 03:38:52;;;;;;;9.32;5.70;;;;;;;;;;6252351;28;20048;-70
2023/10/18 03:41:58;;;;;;;9.00;5.40;;;;;;;;;;6250145;28;20082;-70
2023/10/18 03:45:10;;;;;;;9.07;5.63;;;;;;;;;;6240290;28;20372;-73
2023/10/18 03:48:23;;;;;;;11.63;5.35;;;;;;;;;;6249633;28;20056;-70
2023/10/18 03:51:24;;;;;;;9.57;5.22;;;;;;;;;;6247094;28;20610;-70
2023/10/18 03:54:27;;;;;;;9.18;5.07;;;;;;;;;;6256885;28;20060;-70
2023/10/18 03:57:30;;;;;;;11.20;6.15;;;;;;;;;;6253826;28;20241;-72
2023/10/18 04:00:39;;;;;;;9.15;5.75;;;;;;;;;;6255642;28;20057;-72
2023/10/18 04:03:41;;;;;;;8.90;5.38;;;;;;;;;;6252022;28;20483;-70
2023/10/18 04:06:43;;;;;;;7.90;5.13;;;;;;;;;;6250077;28;20058;-72
2023/10/18 04:09:47;;;;;;;13.32;5.75;;;;;;;;;;6253344;28;20045;-69
2023/10/18 04:12:50;;;;;;;13.25;5.60;;;;;;;;;;6254331;28;20083;-69
2023/10/18 04:15:59;;;;;;;9.10;5.10;;;;;;;;;;6250499;28;20054;-72
2023/10/18 04:19:02;;;;;;;17.30;5.65;;;;;;;;;;6253599;28;20045;-71
2023/10/18 04:22:08;;;;;;;8.88;5.50;;;;;;;;;;6226361;28;20054;-71
2023/10/18 04:25:14;;;;;;;8.50;5.55;;;;;;;;;;6229690;28;20069;-71
2023/10/18 04:28:15;;;;;;;11.80;5.53;;;;;;;;;;6229030;28;20058;-71
2023/10/18 04:31:21;;;;;;;12.23;6.15;;;;;;;;;;6229095;28;20096;-72
2023/10/18 04:34:24;;;;;;;8.82;6.00;;;;;;;;;;6226566;28;20062;-72
2023/10/18 04:37:26;;;;;;;9.88;5.75;;;;;;;;;;6228691;28;20116;-70
2023/10/18 04:40:28;;;;;;;10.90;6.93;;;;;;;;;;6227284;28;20056;-70
2023/10/18 04:43:32;;;;;;;16.25;6.43;;;;;;;;;;6222917;28;20052;-70
2023/10/18 04:46:36;;;;;;;11.52;6.10;;;;;;;;;;6227290;28;20250;-69
2023/10/18 04:49:39;;;;;;;8.88;5.88;;;;;;;;;;6230460;28;20141;-69
2023/10/18 04:52:47;;;;;;;10.27;6.13;;;;;;;;;;6226924;28;20054;-68
2023/10/18 04:55:50;;;;;;;12.80;6.20;;;;;;;;;;6226025;28;20050;-69
2023/10/18 04:58:51;;;;;;;11.50;6.68;;;;;;;;;;6226626;28;20062;-68
2023/10/18 05:01:58;;;;;;;10.43;5.97;;;;;;;;;;6224599;28;20062;-70
2023/10/18 05:05:09;;;;;;;9.43;6.25;;;;;;;;;;6229078;28;20053;-74
2023/10/18 05:08:17;;;;;;;10.27;5.55;;;;;;;;;;6227180;28;20100;-68
2023/10/18 05:11:26;;;;;;;9.35;5.93;;;;;;;;;;6227550;28;20052;-71
2023/10/18 05:14:42;;;;;;;11.45;6.53;;;;;;;;;;6230992;28;20045;-69
2023/10/18 05:17:47;;;;;;;10.10;6.30;;;;;;;;;;6234345;28;20045;-71
2023/10/18 05:20:57;;;;;;;13.25;5.63;;;;;;;;;;6234269;28;20094;-69
2023/10/18 05:23:59;;;;;;;12.48;6.63;;;;;;;;;;6245660;28;20053;-69
2023/10/18 05:27:04;;;;;;;9.60;6.15;;;;;;;;;;6253169;28;20241;-70
2023/10/18 05:30:14;;;;;;;11.98;6.72;;;;;;;;;;6253167;28;20046;-71
2023/10/18 05:33:47;;;;;;;11.85;6.00;;;;;;;;;;6251973;28;20091;-72
2023/10/18 05:36:54;;;;;;;13.25;6.15;;;;;;;;;;6252602;28;20363;-70
2023/10/18 05:43:22;;;;;;;11.50;6.65;;;;;;;;;;6228126;28;20073;-71
2023/10/18 05:46:27;;;;;;;13.68;6.68;;;;;;;;;;6224013;28;20282;-70
2023/10/18 05:49:34;;;;;;;10.63;6.40;;;;;;;;;;6229207;28;20062;-70
2023/10/18 05:52:38;;;;;;;15.52;6.80;;;;;;;;;;6228250;28;20092;-70
2023/10/18 05:55:40;;;;;;;14.63;6.63;;;;;;;;;;6227229;28;20065;-70
2023/10/18 05:58:42;;;;;;;10.82;6.93;;;;;;;;;;6219945;28;20058;-71
2023/10/18 06:01:43;;;;;;;17.75;6.65;;;;;;;;;;6223933;28;20122;-71
2023/10/18 06:04:46;;;;;;;16.58;7.50;;;;;;;;;;6228817;28;20057;-70
2023/10/18 06:07:48;;;;;;;19.15;7.45;;;;;;;;;;6226415;28;20058;-70
2023/10/18 06:10:55;;;;;;;17.58;7.38;;;;;;;;;;6234140;28;20061;-70
2023/10/18 06:13:58;;;;;;;15.98;7.10;;;;;;;;;;6238243;28;20061;-68
2023/10/18 06:17:07;;;;;;;13.68;7.50;;;;;;;;;;6234881;28;20046;-70
2023/10/18 06:20:14;;;;;;;17.77;7.15;;;;;;;;;;6247424;28;20409;-69
2023/10/18 06:23:36;;;;;;;12.43;6.65;;;;;;;;;;6242482;28;20073;-73
2023/10/18 06:26:41;;;;;;;19.45;7.28;;;;;;;;;;6224730;28;20064;-70
2023/10/18 06:29:45;;;;;;;16.25;7.38;;;;;;;;;;6218427;28;20081;-70
2023/10/18 06:32:46;;;;;;;16.90;7.32;;;;;;;;;;6227108;28;20353;-72
2023/10/18 06:35:52;;;;;;;11.07;6.97;;;;;;;;;;6224371;28;20061;-70
2023/10/18 06:38:54;;;;;;;12.45;6.70;;;;;;;;;;6220228;28;20046;-69
2023/10/18 06:41:56;;;;;;;11.75;7.22;;;;;;;;;;6222218;28;20060;-70
2023/10/18 06:44:58;;;;;;;12.48;7.50;;;;;;;;;;6225568;28;20190;-69
2023/10/18 06:48:02;;;;;;;14.10;6.72;;;;;;;;;;6232796;28;20053;-70
2023/10/18 06:51:11;;;;;;;11.88;6.53;;;;;;;;;;6224081;28;20121;-70
2023/10/18 06:54:23;;;;;;;12.45;7.28;;;;;;;;;;6229381;28;20042;-71
2023/10/18 06:57:35;;;;;;;11.60;7.53;;;;;;;;;;6221307;28;20255;-72
2023/10/18 07:00:37;;;;;;;11.98;6.75;;;;;;;;;;6226384;28;20061;-69
2023/10/18 07:03:43;;;;;;;12.98;7.05;;;;;;;;;;6222964;28;20150;-71
2023/10/18 07:06:49;;;;;;;11.88;6.47;;;;;;;;;;6223405;28;20058;-70
2023/10/18 07:09:53;;;;;;;10.57;7.03;;;;;;;;;;6228818;28;20057;-68
2023/10/18 07:12:55;;;;;;;15.85;7.28;;;;;;;;;;6225445;28;20050;-69
2023/10/18 07:16:00;;;;;;;15.50;7.50;;;;;;;;;;6223121;28;20053;-70
2023/10/18 07:19:06;;;;;;;12.68;6.85;;;;;;;;;;6241696;28;20044;-71
2023/10/18 07:22:10;;;;;;;13.52;7.18;;;;;;;;;;6232154;28;20059;-69
2023/10/18 07:25:19;;;;;;;15.27;7.45;;;;;;;;;;6243452;28;20052;-71
2023/10/18 07:28:21;;;;;;;14.27;6.95;;;;;;;;;;6251151;28;20053;-71
2023/10/18 07:31:32;;;;;;;12.02;7.43;;;;;;;;;;6257215;28;20059;-70
2023/10/18 07:34:36;;;;;;;11.07;7.00;;;;;;;;;;6252321;28;20067;-68
2023/10/18 07:37:43;;;;;;;13.20;7.75;;;;;;;;;;6235546;28;21191;-71
2023/10/18 07:40:45;;;;;;;14.73;6.90;;;;;;;;;;6251568;28;20405;-70
2023/10/18 07:43:47;;;;;;;13.23;7.22;;;;;;;;;;6259847;28;20094;-71
2023/10/18 07:46:48;;;;;;;17.67;7.38;;;;;;;;;;6253699;28;20057;-69
2023/10/18 07:49:50;;;;;;;13.65;7.15;;;;;;;;;;6254274;28;20062;-70
2023/10/18 07:52:54;;;;;;;10.90;7.07;;;;;;;;;;6251827;28;20068;-69
2023/10/18 07:55:57;;;;;;;10.35;6.80;;;;;;;;;;6242475;28;20096;-70
2023/10/18 07:59:27;;;;;;;13.75;7.25;;;;;;;;;;6228469;28;20192;-70
2023/10/18 08:02:31;;;;;;;12.32;7.03;;;;;;;;;;6235596;28;20345;-70
2023/10/18 08:05:45;;;;;;;13.50;7.45;;;;;;;;;;6231335;28;20061;-70
2023/10/18 08:08:48;;;;;;;10.60;6.50;;;;;;;;;;6227753;28;20208;-73
2023/10/18 08:11:50;;;;;;;11.77;6.85;;;;;;;;;;6232460;28;20330;-71
2023/10/18 08:14:54;;;;;;;12.80;6.65;;;;;;;;;;6231556;28;20233;-68
2023/10/18 08:18:00;;;;;;;10.88;6.30;;;;;;;;;;6230244;28;20121;-71
2023/10/18 08:21:07;;;;;;;10.70;6.93;;;;;;;;;;6221890;28;20208;-70
2023/10/18 08:24:19;;;;;;;13.95;7.00;;;;;;;;;;6226908;28;20049;-70
2023/10/18 08:27:21;;;;;;;10.02;6.38;;;;;;;;;;6224813;28;20226;-71
2023/10/18 08:30:38;;;;;;;12.35;6.78;;;;;;;;;;6230086;28;20077;-71
2023/10/18 08:33:40;;;;;;;16.27;6.40;;;;;;;;;;6225721;28;20286;-71
2023/10/18 08:36:43;;;;;;;9.98;6.05;;;;;;;;;;6224307;28;20115;-70
2023/10/18 08:39:55;;;;;;;11.23;6.13;;;;;;;;;;6226435;28;20128;-71
2023/10/18 08:43:06;;;;;;;9.65;6.10;;;;;;;;;;6229505;28;20045;-70
2023/10/18 08:46:07;;;;;;;13.15;6.47;;;;;;;;;;6249091;28;20096;-70
2023/10/18 08:49:10;;;;;;;11.52;6.65;;;;;;;;;;6226826;28;20045;-71
2023/10/18 08:52:16;;;;;;;9.70;6.23;;;;;;;;;;6224411;28;20346;-70
2023/10/18 08:55:43;;;;;;;11.52;6.15;;;;;;;;;;6231351;28;20124;-69
2023/10/18 08:58:47;;;;;;;11.65;7.00;;;;;;;;;;6235450;28;20053;-70
2023/10/18 09:05:09;;;;;;;10.77;6.50;;;;;;;;;;6230536;28;20347;-70
2023/10/18 09:08:19;;;;;;;14.00;6.50;;;;;;;;;;6230132;28;20046;-68
2023/10/18 09:11:22;;;;;;;12.77;7.10;;;;;;;;;;6231772;28;20061;-70
2023/10/18 09:14:23;;;;;;;16.50;7.22;;;;;;;;;;6244571;28;20065;-69
2023/10/18 09:17:24;;;;;;;11.52;7.20;;;;;;;;;;6229207;28;20099;-70
2023/10/18 09:20:27;;;;;;;10.82;7.53;;;;;;;;;;6234325;28;20211;-72
2023/10/18 09:23:30;;;;;;;10.57;7.20;;;;;;;;;;6227153;28;20050;-71
2023/10/18 09:26:40;;;;;;;13.10;7.77;;;;;;;;;;6226753;28;20399;-70
2023/10/18 09:29:42;;;;;;;14.50;8.13;;;;;;;;;;6221047;28;20061;-70
2023/10/18 09:32:45;;;;;;;14.18;8.35;;;;;;;;;;6223330;28;20054;-70
2023/10/18 09:35:49;;;;;;;12.30;7.68;;;;;;;;;;6228879;28;20228;-70
2023/10/18 09:38:52;;;;;;;13.00;7.40;;;;;;;;;;6231606;28;20129;-69
2023/10/18 09:41:55;;;;;;;19.58;8.63;;;;;;;;;;6228848;28;20050;-71
2023/10/18 09:44:56;;;;;;;12.00;8.00;;;;;;;;;;6227243;28;20233;-69
2023/10/18 09:47:59;;;;;;;17.00;8.90;;;;;;;;;;6221458;28;20058;-70
2023/10/18 09:51:06;;;;;;;19.07;9.57;;;;;;;;;;6224380;28;20073;-70
2023/10/18 09:54:13;;;;;;;13.73;8.75;;;;;;;;;;6225735;28;20050;-70
2023/10/18 09:57:23;;;;;;;12.10;8.65;;;;;;;;;;6224625;28;20273;-71
2023/10/18 10:00:26;;;;;;;16.27;9.90;;;;;;;;;;6222957;28;20057;-71
2023/10/18 10:03:30;;;;;;;21.38;10.10;;;;;;;;;;6228764;28;20061;-71
2023/10/18 10:06:33;;;;;;;13.80;8.65;;;;;;;;;;6223781;28;20046;-71
2023/10/18 10:09:38;;;;;;;17.58;10.00;;;;;;;;;;6223579;28;20100;-70
2023/10/18 10:12:42;;;;;;;17.08;9.52;;;;;;;;;;6225346;28;20058;-70
2023/10/18 10:15:45;;;;;;;15.02;10.10;;;;;;;;;;6228889;28;20042;-68
2023/10/18 10:18:49;;;;;;;19.50;9.40;;;;;;;;;;6229086;28;20057;-69
2023/10/18 10:21:52;;;;;;;19.15;9.05;;;;;;;;;;6224532;28;20053;-68
2023/10/18 10:25:00;;;;;;;21.20;9.50;;;;;;;;;;6221935;28;20335;-70
2023/10/18 10:28:14;;;;;;;17.58;9.38;;;;;;;;;;6233673;28;20364;-73
2023/10/18 10:31:21;;;;;;;15.13;10.05;;;;;;;;;;6250432;28;20436;-70
2023/10/18 10:34:27;;;;;;;16.40;9.23;;;;;;;;;;6250488;28;20053;-70
2023/10/18 10:37:29;;;;;;;15.57;9.85;;;;;;;;;;6230329;28;20334;-70
2023/10/18 10:40:36;;;;;;;18.40;9.63;;;;;;;;;;6225915;28;20054;-72
2023/10/18 10:44:10;;;;;;;19.08;10.25;;;;;;;;;;6225154;28;20075;-69
2023/10/18 10:47:29;;;;;;;17.27;9.63;;;;;;;;;;6220786;28;20338;-70
2023/10/18 10:50:42;;;;;;;16.88;10.13;;;;;;;;;;6225318;28;20058;-71
2023/10/18 10:53:48;;;;;;;20.13;10.93;;;;;;;;;;6240080;28;20088;-71
2023/10/18 10:56:53;;;;;;;16.10;10.18;;;;;;;;;;6224074;28;20139;-70
2023/10/18 10:59:58;;;;;;;20.88;10.52;;;;;;;;;;6224019;28;20089;-71
2023/10/18 11:03:06;;;;;;;16.20;9.63;;;;;;;;;;6242593;28;20063;-70
2023/10/18 11:06:10;;;;;;;17.30;9.55;;;;;;;;;;6226765;28;20108;-70
2023/10/18 11:09:16;;;;;;;17.83;9.38;;;;;;;;;;6223169;28;20050;-73
2023/10/18 11:12:22;;;;;;;20.13;9.80;;;;;;;;;;6225885;28;20050;-70
2023/10/18 11:15:27;;;;;;;16.60;10.10;;;;;;;;;;6229149;28;20063;-68
2023/10/18 11:18:34;;;;;;;15.80;10.73;;;;;;;;;;6228310;28;20298;-71
2023/10/18 11:21:38;;;;;;;18.92;9.75;;;;;;;;;;6245079;28;20113;-71
2023/10/18 11:24:41;;;;;;;18.98;10.68;;;;;;;;;;6219964;28;20590;-71
2023/10/18 11:27:42;;;;;;;14.88;10.30;;;;;;;;;;6221475;28;20203;-71
2023/10/18 11:30:46;;;;;;;16.88;10.25;;;;;;;;;;6230003;28;20344;-71
2023/10/18 11:33:54;;;;;;;20.20;11.13;;;;;;;;;;6224642;28;20045;-70
2023/10/18 11:37:01;;;;;;;14.63;10.27;;;;;;;;;;6229437;28;20058;-70
2023/10/18 11:40:14;;;;;;;15.00;9.38;;;;;;;;;;6238739;28;20050;-69
2023/10/18 11:43:24;;;;;;;20.70;10.93;;;;;;;;;;6219569;28;20066;-72
2023/10/18 11:46:27;;;;;;;12.38;8.98;;;;;;;;;;6217990;28;20448;-69
2023/10/18 11:49:36;;;;;;;16.97;10.33;;;;;;;;;;6225026;28;20057;-70
2023/10/18 11:52:38;;;;;;;16.65;9.82;;;;;;;;;;6228761;28;20645;-70
2023/10/18 11:55:55;;;;;;;13.65;9.45;;;;;;;;;;6225022;28;20364;-70
2023/10/18 11:59:00;;;;;;;16.90;8.68;;;;;;;;;;6225340;28;20109;-71
2023/10/18 12:02:05;;;;;;;14.73;9.07;;;;;;;;;;6220889;28;20054;-72
2023/10/18 12:05:10;;;;;;;15.63;8.93;;;;;;;;;;6223842;28;20042;-71
2023/10/18 12:08:13;;;;;;;20.00;10.25;;;;;;;;;;6224194;28;20234;-71
2023/10/18 12:11:16;;;;;;;16.53;8.87;;;;;;;;;;6234745;28;20149;-69
2023/10/18 12:14:18;;;;;;;14.02;8.77;;;;;;;;;;6235025;28;20076;-71
2023/10/18 12:17:21;;;;;;;13.18;9.23;;;;;;;;;;6232808;28;20060;-70
2023/10/18 12:20:34;;;;;;;13.30;8.40;;;;;;;;;;6227105;28;20389;-70
2023/10/18 12:23:36;;;;;;;18.35;9.60;;;;;;;;;;6224049;28;20050;-73
2023/10/18 12:26:39;;;;;;;17.60;9.75;;;;;;;;;;6232201;28;20045;-70
2023/10/18 12:29:43;;;;;;;16.58;9.15;;;;;;;;;;6227511;28;20278;-70
2023/10/18 12:32:51;;;;;;;16.13;10.20;;;;;;;;;;6237002;28;20088;-70
2023/10/18 12:35:56;;;;;;;12.73;9.35;;;;;;;;;;6228731;28;20057;-69
2023/10/18 12:38:58;;;;;;;13.32;9.52;;;;;;;;;;6226906;28;20045;-68
2023/10/18 12:42:00;;;;;;;16.65;9.43;;;;;;;;;;6225447;28;20054;-71
2023/10/18 12:45:09;;;;;;;14.27;10.15;;;;;;;;;;6224484;28;20073;-70
2023/10/18 12:48:14;;;;;;;18.45;9.35;;;;;;;;;;6230108;28;20049;-71
2023/10/18 12:51:17;;;;;;;16.17;9.80;;;;;;;;;;6230010;28;20129;-69
2023/10/18 12:54:20;;;;;;;17.58;10.07;;;;;;;;;;6229490;28;20058;-71
2023/10/18 12:57:21;;;;;;;15.95;9.20;;;;;;;;;;6229491;28;20056;-70
2023/10/18 13:00:25;;;;;;;16.27;9.75;;;;;;;;;;6227340;28;20076;-71
2023/10/18 13:03:33;;;;;;;15.30;9.18;;;;;;;;;;6222071;28;20060;-71
2023/10/18 13:06:42;;;;;;;17.35;9.65;;;;;;;;;;6228759;28;20042;-70
2023/10/18 13:09:44;;;;;;;15.93;9.82;;;;;;;;;;6223701;28;20060;-70
2023/10/18 13:12:51;;;;;;;17.52;9.73;;;;;;;;;;6230584;28;20065;-71
2023/10/18 13:15:53;;;;;;;16.20;10.55;;;;;;;;;;6223519;28;20092;-71
2023/10/18 13:18:57;;;;;;;17.73;10.70;;;;;;;;;;6223982;28;20096;-71
2023/10/18 13:21:59;;;;;;;15.73;10.45;;;;;;;;;;6224671;28;20096;-70
2023/10/18 13:25:07;;;;;;;15.80;10.65;;;;;;;;;;6219372;28;20057;-70
2023/10/18 13:28:10;;;;;;;16.60;9.23;;;;;;;;;;6220303;28;20109;-70
2023/10/18 13:31:18;;;;;;;15.50;9.53;;;;;;;;;;6245287;28;20076;-71
2023/10/18 13:34:21;;;;;;;12.75;9.13;;;;;;;;;;6232254;28;20069;-70
2023/10/18 13:37:23;;;;;;;19.83;9.80;;;;;;;;;;6242164;28;20341;-71
2023/10/18 13:40:27;;;;;;;15.63;10.05;;;;;;;;;;6244635;28;20054;-69
2023/10/18 13:43:30;;;;;;;13.50;9.63;;;;;;;;;;6241194;28;20263;-71
2023/10/18 13:46:32;;;;;;;16.15;10.02;;;;;;;;;;6239374;28;20277;-74
2023/10/18 13:49:35;;;;;;;16.85;9.23;;;;;;;;;;6241728;28;20058;-70
2023/10/18 13:52:37;;;;;;;20.33;10.53;;;;;;;;;;6238403;28;20521;-70
2023/10/18 13:55:39;;;;;;;15.77;10.10;;;;;;;;;;6249613;28;20115;-70
2023/10/18 13:58:41;;;;;;;17.00;10.10;;;;;;;;;;6246388;28;20081;-71
2023/10/18 14:01:43;;;;;;;22.33;10.38;;;;;;;;;;6245001;28;20049;-71
2023/10/18 14:04:46;;;;;;;18.85;11.10;;;;;;;;;;6240100;28;20287;-71
2023/10/18 14:07:48;;;;;;;15.70;10.03;;;;;;;;;;6234285;28;20053;-69
2023/10/18 14:10:54;;;;;;;19.48;10.48;;;;;;;;;;6248914;28;20057;-71
2023/10/18 14:13:56;;;;;;;19.33;10.57;;;;;;;;;;6227438;28;20046;-69
2023/10/18 14:16:58;;;;;;;17.92;10.10;;;;;;;;;;6227251;28;20120;-73
2023/10/18 14:20:10;;;;;;;20.98;10.52;;;;;;;;;;6229179;28;20053;-69
2023/10/18 14:23:12;;;;;;;20.65;11.57;;;;;;;;;;6252623;28;20222;-70
2023/10/18 14:26:14;;;;;;;19.20;11.43;;;;;;;;;;6248276;28;20123;-70
2023/10/18 14:29:16;;;;;;;15.48;10.57;;;;;;;;;;6252547;28;20055;-71
2023/10/18 14:32:18;;;;;;;20.20;10.43;;;;;;;;;;6246829;28;20041;-71
2023/10/18 14:35:25;;;;;;;16.10;10.75;;;;;;;;;;6251399;28;20079;-70
2023/10/18 14:38:28;;;;;;;15.30;10.82;;;;;;;;;;6245845;28;20060;-69
2023/10/18 14:41:30;;;;;;;17.45;11.35;;;;;;;;;;6252317;28;20056;-70
2023/10/18 14:44:32;;;;;;;15.35;10.68;;;;;;;;;;6252653;28;20235;-69
2023/10/18 14:47:38;;;;;;;18.75;10.98;;;;;;;;;;6249771;28;20073;-69
2023/10/18 14:50:41;;;;;;;20.05;11.73;;;;;;;;;;6254073;28;20151;-70
2023/10/18 14:53:43;;;;;;;14.90;11.38;;;;;;;;;;6248074;28;20245;-71
2023/10/18 14:56:45;;;;;;;24.15;11.77;;;;;;;;;;6245977;28;20056;-70
2023/10/18 14:59:47;;;;;;;19.70;12.25;;;;;;;;;;6249517;28;20045;-71
2023/10/18 15:02:50;;;;;;;18.42;12.45;;;;;;;;;;6248992;28;20246;-69
2023/10/18 15:05:54;;;;;;;17.92;11.38;;;;;;;;;;6235438;28;20061;-68
2023/10/18 15:08:57;;;;;;;20.50;11.80;;;;;;;;;;6223792;28;20066;-68
2023/10/18 15:11:59;;;;;;;19.17;11.40;;;;;;;;;;6228950;28;20050;-70
2023/10/18 15:15:01;;;;;;;17.70;11.40;;;;;;;;;;6230644;28;20795;-71
2023/10/18 15:18:03;;;;;;;19.08;11.25;;;;;;;;;;6223003;28;20407;-70
2023/10/18 15:21:09;;;;;;;18.17;12.18;;;;;;;;;;6221276;28;20068;-73
2023/10/18 15:24:12;;;;;;;17.98;11.65;;;;;;;;;;6224260;28;20139;-69
2023/10/18 15:27:15;;;;;;;19.27;12.10;;;;;;;;;;6225133;28;20054;-71
2023/10/18 15:30:17;;;;;;;16.35;11.50;;;;;;;;;;6222780;28;20042;-74
2023/10/18 15:33:19;;;;;;;22.75;12.35;;;;;;;;;;6220258;28;20053;-70
2023/10/18 15:36:24;;;;;;;19.63;11.60;;;;;;;;;;6234516;28;20343;-69
2023/10/18 15:39:26;;;;;;;18.88;12.05;;;;;;;;;;6223216;28;20266;-70
2023/10/18 15:42:28;;;;;;;21.77;12.65;;;;;;;;;;6219679;28;20078;-69
2023/10/18 15:45:31;;;;;;;19.10;12.93;;;;;;;;;;6251614;28;20099;-70
2023/10/18 15:48:33;;;;;;;21.40;14.00;;;;;;;;;;6254557;28;20057;-71
2023/10/18 15:51:36;;;;;;;18.00;12.75;;;;;;;;;;6252727;28;20065;-70
2023/10/18 15:54:38;;;;;;;20.48;13.27;;;;;;;;;;6248170;28;20091;-70
2023/10/18 15:57:40;;;;;;;23.40;12.93;;;;;;;;;;6254345;28;20346;-70
2023/10/18 16:00:42;;;;;;;17.73;12.00;;;;;;;;;;6258122;28;20345;-70
2023/10/18 16:03:44;;;;;;;19.90;12.90;;;;;;;;;;6256085;28;20076;-69
2023/10/18 16:06:49;;;;;;;21.17;13.60;;;;;;;;;;6232345;28;20098;-70
2023/10/18 16:09:51;;;;;;;19.65;13.93;;;;;;;;;;6228771;28;20061;-70
2023/10/18 16:12:53;;;;;;;20.75;12.85;;;;;;;;;;6222681;28;20050;-69
2023/10/18 16:16:00;;;;;;;20.63;14.20;;;;;;;;;;6226734;28;20542;-70
2023/10/18 16:19:03;;;;;;;21.75;14.05;;;;;;;;;;6233718;28;20584;-71
2023/10/18 16:22:06;;;;;;;26.10;14.35;;;;;;;;;;6229059;28;20081;-69
2023/10/18 16:25:10;;;;;;;21.70;14.00;;;;;;;;;;6229565;28;20068;-70
2023/10/18 16:28:11;;;;;;;21.67;14.32;;;;;;;;;;6229131;28;20108;-70
2023/10/18 16:31:14;;;;;;;20.77;14.93;;;;;;;;;;6222545;28;20050;-70
2023/10/18 16:34:16;;;;;;;27.48;15.18;;;;;;;;;;6229305;28;20342;-69
2023/10/18 16:37:19;;;;;;;21.50;14.95;;;;;;;;;;6227550;28;20050;-72
2023/10/18 16:40:21;;;;;;;23.95;17.05;;;;;;;;;;6225512;28;20081;-70
2023/10/18 16:43:23;;;;;;;27.92;17.10;;;;;;;;;;6232058;28;20278;-70
2023/10/18 16:46:25;;;;;;;28.98;17.70;;;;;;;;;;6230178;28;20050;-69
2023/10/18 16:49:28;;;;;;;25.25;17.58;;;;;;;;;;6232618;28;20053;-69
2023/10/18 16:52:31;;;;;;;31.02;18.95;;;;;;;;;;6228380;28;20108;-69
2023/10/18 16:55:34;;;;;;;27.05;18.13;;;;;;;;;;6229148;28;20167;-70
2023/10/18 16:58:36;;;;;;;28.35;17.92;;;;;;;;;;6225765;28;20096;-69
2023/10/18 17:01:38;;;;;;;30.73;18.85;;;;;;;;;;6232245;28;20057;-70
2023/10/18 17:04:40;;;;;;;28.42;19.27;;;;;;;;;;6224112;28;20111;-70
2023/10/18 17:07:44;;;;;;;27.85;18.98;;;;;;;;;;6228018;28;20062;-69
2023/10/18 17:10:46;;;;;;;28.25;18.58;;;;;;;;;;6222313;28;20050;-70
2023/10/18 17:13:50;;;;;;;30.05;19.00;;;;;;;;;;6225001;28;20053;-70
2023/10/18 17:16:52;;;;;;;28.65;18.90;;;;;;;;;;6229616;28;20069;-69
2023/10/18 17:19:54;;;;;;;28.20;18.58;;;;;;;;;;6227240;28;20065;-69
2023/10/18 17:22:57;;;;;;;29.73;18.88;;;;;;;;;;6231988;28;20054;-69
2023/10/18 17:25:59;;;;;;;28.60;19.03;;;;;;;;;;6225582;28;20105;-69
2023/10/18 17:29:02;;;;;;;32.13;18.85;;;;;;;;;;6226307;28;20452;-69
2023/10/18 17:32:06;;;;;;;27.40;20.03;;;;;;;;;;6226616;28;20254;-68
2023/10/18 17:35:11;;;;;;;31.10;19.38;;;;;;;;;;6226444;28;20248;-68
2023/10/18 17:38:14;;;;;;;28.65;17.92;;;;;;;;;;6230418;28;20109;-68
2023/10/18 17:41:16;;;;;;;25.50;17.83;;;;;;;;;;6246114;28;20060;-70
2023/10/18 17:44:18;;;;;;;26.17;18.52;;;;;;;;;;6234285;28;20058;-70
2023/10/18 17:47:20;;;;;;;29.52;18.23;;;;;;;;;;6240729;28;20057;-69
2023/10/18 17:50:22;;;;;;;33.67;18.63;;;;;;;;;;6244299;28;20053;-69
2023/10/18 17:53:25;;;;;;;28.63;18.80;;;;;;;;;;6237074;28;20058;-69
2023/10/18 17:56:27;;;;;;;29.33;20.13;;;;;;;;;;6230735;28;20339;-69
2023/10/18 17:59:30;;;;;;;25.10;17.98;;;;;;;;;;6230329;28;20120;-72
2023/10/18 18:02:31;;;;;;;25.23;17.50;;;;;;;;;;6226444;28;20064;-69
2023/10/18 18:05:35;;;;;;;30.70;19.00;;;;;;;;;;6223667;28;20054;-69
2023/10/18 18:08:39;;;;;;;31.42;20.10;;;;;;;;;;6221610;28;20121;-69
2023/10/18 18:11:41;;;;;;;;;;;;;;;;;;6228606;28;20053;-69
2023/10/18 18:14:42;;;;;;;30.40;20.02;;;;;;;;;;6230517;28;19917;-71